createdAt,value
2018-04-02T00:02:42.094Z,0.30
2018-04-02T00:05:46.081Z,0.20
2018-04-02T00:08:49.508Z,0.20
2018-04-02T00:11:52.822Z,0.20
2018-04-02T00:14:56.150Z,0.10
2018-04-02T00:17:59.449Z,0.10
2018-04-02T00:21:02.770Z,0.00
2018-04-02T00:24:06.063Z,0.00
2018-04-02T00:27:09.400Z,-0.10
2018-04-02T00:30:12.711Z,-0.20
2018-04-02T00:33:16.799Z,-0.20
2018-04-02T00:36:20.107Z,-0.20
2018-04-02T00:39:23.430Z,-0.30
2018-04-02T00:42:27.527Z,-0.40
2018-04-02T00:45:31.607Z,-0.40
2018-04-02T00:48:34.931Z,-0.40
2018-04-02T00:51:38.260Z,-0.40
2018-04-02T00:54:41.587Z,-0.40
2018-04-02T00:57:44.885Z,-0.40
2018-04-02T01:00:48.210Z,-0.50
2018-04-02T01:03:51.533Z,-0.40
2018-04-02T01:06:55.635Z,-0.40
2018-04-02T01:09:58.938Z,-0.50
2018-04-02T01:13:03.030Z,-0.50
2018-04-02T01:16:06.336Z,-0.60
2018-04-02T01:19:09.658Z,-0.60
2018-04-02T01:22:13.758Z,-0.60
2018-04-02T01:25:17.064Z,-0.60
2018-04-02T01:28:21.171Z,-0.50
2018-04-02T01:31:25.247Z,-0.50
2018-04-02T01:34:28.562Z,-0.50
2018-04-02T01:37:31.867Z,-0.50
2018-04-02T01:40:35.203Z,-0.50
2018-04-02T01:43:38.513Z,-0.60
2018-04-02T01:46:41.851Z,-0.60
2018-04-02T01:49:45.157Z,-0.60
2018-04-02T01:52:48.485Z,-0.60
2018-04-02T01:55:51.806Z,-0.60
2018-04-02T01:58:55.134Z,-0.60
2018-04-02T02:01:58.451Z,-0.60
2018-04-02T02:05:01.768Z,-0.50
2018-04-02T02:08:05.087Z,-0.50
2018-04-02T02:11:08.395Z,-0.50
2018-04-02T02:14:11.710Z,-0.40
2018-04-02T02:17:15.079Z,-0.50
2018-04-02T02:20:19.122Z,-0.40
2018-04-02T02:23:22.439Z,-0.50
2018-04-02T02:26:25.739Z,-0.40
2018-04-02T02:29:29.072Z,-0.40
2018-04-02T02:32:32.372Z,-0.40
2018-04-02T02:35:35.686Z,-0.40
2018-04-02T02:38:39.004Z,-0.40
2018-04-02T02:41:42.303Z,-0.40
2018-04-02T02:44:45.632Z,-0.30
2018-04-02T02:47:49.751Z,-0.30
2018-04-02T02:50:53.814Z,-0.30
2018-04-02T02:53:57.140Z,-0.30
2018-04-02T02:57:01.243Z,-0.30
2018-04-02T03:00:04.551Z,-0.30
2018-04-02T03:03:07.874Z,-0.30
2018-04-02T03:06:11.178Z,-0.30
2018-04-02T03:09:14.494Z,-0.30
2018-04-02T03:12:18.580Z,-0.30
2018-04-02T03:15:21.879Z,-0.30
2018-04-02T03:18:25.202Z,-0.30
2018-04-02T03:21:28.522Z,-0.30
2018-04-02T03:24:31.845Z,-0.30
2018-04-02T03:27:35.914Z,-0.40
2018-04-02T03:30:39.232Z,-0.40
2018-04-02T03:33:42.562Z,-0.40
2018-04-02T03:36:46.622Z,-0.50
2018-04-02T03:39:49.943Z,-0.50
2018-04-02T03:42:53.250Z,-0.40
2018-04-02T03:45:56.575Z,-0.40
2018-04-02T03:49:00.635Z,-0.30
2018-04-02T03:52:03.946Z,-0.40
2018-04-02T03:55:07.243Z,-0.40
2018-04-02T03:58:10.562Z,-0.40
2018-04-02T04:01:14.627Z,-0.50
2018-04-02T04:04:17.951Z,-0.50
2018-04-02T04:07:21.251Z,-0.50
2018-04-02T04:10:24.570Z,-0.50
2018-04-02T04:13:28.649Z,-0.30
2018-04-02T04:16:31.947Z,-0.30
2018-04-02T04:19:35.282Z,-0.20
2018-04-02T04:22:39.355Z,-0.10
2018-04-02T04:25:42.679Z,-0.10
2018-04-02T04:28:45.993Z,-0.10
2018-04-02T04:31:50.076Z,-0.10
2018-04-02T04:34:53.400Z,-0.10
2018-04-02T04:37:57.478Z,0.00
2018-04-02T04:41:00.798Z,-0.10
2018-04-02T04:44:04.102Z,-0.10
2018-04-02T04:47:08.192Z,0.00
2018-04-02T04:50:11.482Z,0.00
2018-04-02T04:53:14.806Z,0.00
2018-04-02T04:56:18.871Z,0.00
2018-04-02T04:59:22.225Z,0.00
2018-04-02T05:02:25.506Z,0.00
2018-04-02T05:05:28.807Z,0.00
2018-04-02T05:08:32.894Z,0.00
2018-04-02T05:11:36.182Z,0.00
2018-04-02T05:14:39.491Z,0.10
2018-04-02T05:17:42.802Z,0.20
2018-04-02T05:20:46.886Z,0.30
2018-04-02T05:23:50.188Z,0.20
2018-04-02T05:26:53.504Z,0.20
2018-04-02T05:29:56.806Z,0.20
2018-04-02T05:33:00.124Z,0.30
2018-04-02T05:36:04.209Z,0.40
2018-04-02T05:39:07.502Z,0.40
2018-04-02T05:42:10.823Z,0.40
2018-04-02T05:45:14.900Z,0.40
2018-04-02T05:48:18.214Z,0.40
2018-04-02T05:51:21.514Z,0.40
2018-04-02T05:54:24.842Z,0.50
2018-04-02T05:57:28.144Z,0.50
2018-04-02T06:00:31.467Z,0.60
2018-04-02T06:03:34.779Z,0.70
2018-04-02T06:06:38.102Z,0.80
2018-04-02T06:09:42.218Z,0.80
2018-04-02T06:12:45.512Z,0.80
2018-04-02T06:15:48.839Z,1.00
2018-04-02T06:18:52.133Z,1.00
2018-04-02T06:21:55.445Z,1.20
2018-04-02T06:24:58.736Z,1.20
2018-04-02T06:28:02.042Z,1.30
2018-04-02T06:31:05.339Z,1.40
2018-04-02T06:34:08.659Z,1.50
2018-04-02T06:37:11.993Z,1.60
2018-04-02T06:40:15.275Z,1.80
2018-04-02T06:43:18.586Z,1.80
2018-04-02T06:46:22.646Z,2.00
2018-04-02T06:49:25.975Z,2.00
2018-04-02T06:52:29.266Z,2.10
2018-04-02T06:55:32.574Z,2.10
2018-04-02T06:58:35.862Z,2.10
2018-04-02T07:01:39.174Z,2.30
2018-04-02T07:04:42.486Z,2.30
2018-04-02T07:07:45.782Z,2.30
2018-04-02T07:10:57.147Z,2.60
2018-04-02T07:14:00.573Z,2.50
2018-04-02T07:17:04.905Z,2.60
2018-04-02T07:20:08.243Z,2.80
2018-04-02T07:23:11.567Z,2.90
2018-04-02T07:26:15.631Z,3.00
2018-04-02T07:29:18.942Z,3.00
2018-04-02T07:32:22.243Z,3.10
2018-04-02T07:35:25.562Z,3.20
2018-04-02T07:38:28.859Z,3.20
2018-04-02T07:41:38.520Z,3.30
2018-04-02T07:44:43.677Z,3.40
2018-04-02T07:47:47.145Z,3.40
2018-04-02T07:50:51.230Z,3.60
2018-04-02T07:53:54.528Z,3.60
2018-04-02T07:56:57.842Z,3.60
2018-04-02T08:00:01.138Z,3.60
2018-04-02T08:03:04.454Z,3.70
2018-04-02T08:06:08.526Z,4.00
2018-04-02T08:09:11.831Z,4.00
2018-04-02T08:12:15.151Z,4.00
2018-04-02T08:15:18.447Z,4.20
2018-04-02T08:18:21.771Z,4.20
2018-04-02T08:21:25.092Z,4.40
2018-04-02T08:24:28.398Z,4.40
2018-04-02T08:27:31.715Z,4.40
2018-04-02T08:30:35.028Z,4.60
2018-04-02T08:33:38.318Z,4.60
2018-04-02T08:36:41.639Z,4.70
2018-04-02T08:39:45.704Z,4.80
2018-04-02T08:42:49.028Z,4.80
2018-04-02T08:45:52.339Z,4.90
2018-04-02T08:48:56.418Z,4.90
2018-04-02T08:51:59.716Z,4.90
2018-04-02T08:55:03.032Z,5.00
2018-04-02T08:58:06.331Z,4.90
2018-04-02T09:01:09.649Z,5.10
2018-04-02T09:04:13.711Z,4.90
2018-04-02T09:07:17.039Z,5.00
2018-04-02T09:10:20.338Z,5.00
2018-04-02T09:13:24.426Z,5.50
2018-04-02T09:16:27.719Z,5.40
2018-04-02T09:19:31.044Z,5.40
2018-04-02T09:22:34.362Z,5.40
2018-04-02T09:25:38.427Z,5.30
2018-04-02T09:28:41.748Z,5.30
2018-04-02T09:31:45.050Z,5.20
2018-04-02T09:34:48.362Z,5.20
2018-04-02T09:37:52.455Z,5.40
2018-04-02T09:40:55.751Z,5.40
2018-04-02T09:43:59.083Z,5.50
2018-04-02T09:47:02.382Z,5.50
2018-04-02T09:50:05.695Z,5.50
2018-04-02T09:53:08.992Z,5.50
2018-04-02T09:56:12.303Z,5.50
2018-04-02T09:59:15.682Z,5.50
2018-04-02T10:02:21.728Z,5.50
2018-04-02T10:05:25.027Z,5.50
2018-04-02T10:08:28.347Z,5.50
2018-04-02T10:11:31.682Z,5.50
2018-04-02T10:14:34.975Z,5.70
2018-04-02T10:17:38.286Z,5.70
2018-04-02T10:20:42.381Z,5.90
2018-04-02T10:23:45.687Z,5.80
2018-04-02T10:26:49.786Z,6.10
2018-04-02T10:29:53.109Z,6.10
2018-04-02T10:32:57.186Z,6.00
2018-04-02T10:36:00.478Z,5.90
2018-04-02T10:39:03.803Z,5.60
2018-04-02T10:42:07.106Z,5.60
2018-04-02T10:45:10.421Z,5.60
2018-04-02T10:48:13.719Z,5.70
2018-04-02T10:51:17.030Z,5.90
2018-04-02T10:54:20.327Z,6.10
2018-04-02T10:57:24.418Z,6.20
2018-04-02T11:00:28.476Z,6.10
2018-04-02T11:03:31.791Z,6.10
2018-04-02T11:06:35.086Z,6.00
2018-04-02T11:09:38.398Z,6.00
2018-04-02T11:12:41.702Z,5.90
2018-04-02T11:15:44.997Z,6.00
2018-04-02T11:18:48.318Z,6.10
2018-04-02T11:21:52.391Z,6.30
2018-04-02T11:24:55.702Z,6.30
2018-04-02T11:27:59.010Z,6.50
2018-04-02T11:31:03.068Z,6.70
2018-04-02T11:34:06.378Z,6.80
2018-04-02T11:37:09.679Z,6.80
2018-04-02T11:40:12.990Z,6.90
2018-04-02T11:43:16.303Z,7.00
2018-04-02T11:46:20.378Z,7.00
2018-04-02T11:49:23.683Z,7.00
2018-04-02T11:52:26.995Z,6.80
2018-04-02T11:55:30.281Z,6.70
2018-04-02T11:58:33.592Z,6.80
2018-04-02T12:01:36.918Z,6.70
2018-04-02T12:04:40.974Z,6.70
2018-04-02T12:07:44.294Z,6.70
2018-04-02T12:10:47.592Z,6.80
2018-04-02T12:13:50.946Z,6.80
2018-04-02T12:16:54.234Z,6.90
2018-04-02T12:19:57.546Z,7.00
2018-04-02T12:23:00.875Z,6.80
2018-04-02T12:26:04.217Z,6.80
2018-04-02T12:29:07.495Z,6.80
2018-04-02T12:32:11.582Z,6.80
2018-04-02T12:35:14.902Z,6.80
2018-04-02T12:38:18.964Z,6.80
2018-04-02T12:41:22.276Z,6.80
2018-04-02T12:44:25.596Z,6.90
2018-04-02T12:47:29.666Z,6.70
2018-04-02T12:50:32.981Z,6.70
2018-04-02T12:53:36.343Z,6.80
2018-04-02T12:56:39.618Z,6.60
2018-04-02T12:59:43.670Z,6.60
2018-04-02T13:02:46.979Z,6.50
2018-04-02T13:05:50.275Z,6.50
2018-04-02T13:08:53.588Z,6.50
2018-04-02T13:11:56.908Z,6.50
2018-04-02T13:15:00.223Z,6.60
2018-04-02T13:18:03.520Z,6.70
2018-04-02T13:21:06.828Z,6.70
2018-04-02T13:24:10.122Z,6.50
2018-04-02T13:27:14.206Z,6.50
2018-04-02T13:30:18.263Z,6.40
2018-04-02T13:33:21.582Z,6.40
2018-04-02T13:36:24.899Z,6.40
2018-04-02T13:39:28.214Z,6.40
2018-04-02T13:42:32.281Z,6.60
2018-04-02T13:45:35.578Z,6.60
2018-04-02T13:48:38.891Z,6.70
2018-04-02T13:51:42.191Z,6.70
2018-04-02T13:54:45.506Z,6.70
2018-04-02T13:57:49.591Z,6.80
2018-04-02T14:00:52.903Z,6.80
2018-04-02T14:03:56.231Z,6.90
2018-04-02T14:06:59.528Z,6.90
2018-04-02T14:10:02.842Z,6.90
2018-04-02T14:13:06.146Z,7.00
2018-04-02T14:16:09.479Z,7.00
2018-04-02T14:19:12.780Z,7.00
2018-04-02T14:22:16.099Z,7.00
2018-04-02T14:25:20.190Z,7.00
2018-04-02T14:28:23.517Z,7.00
2018-04-02T14:31:27.585Z,7.00
2018-04-02T14:34:30.897Z,7.00
2018-04-02T14:37:34.206Z,7.00
2018-04-02T14:40:37.494Z,6.90
2018-04-02T14:43:40.829Z,6.90
2018-04-02T14:46:44.123Z,6.90
2018-04-02T14:49:47.485Z,7.00
2018-04-02T14:52:50.742Z,6.90
2018-04-02T14:55:54.050Z,6.90
2018-04-02T14:58:58.107Z,6.90
2018-04-02T15:02:02.190Z,6.80
2018-04-02T15:05:05.486Z,6.80
2018-04-02T15:08:08.794Z,6.90
2018-04-02T15:11:12.106Z,6.90
2018-04-02T15:14:16.635Z,6.90
2018-04-02T15:17:20.718Z,7.00
2018-04-02T15:20:24.034Z,7.00
2018-04-02T15:23:27.370Z,7.10
2018-04-02T15:26:30.674Z,7.30
2018-04-02T15:29:34.034Z,7.20
2018-04-02T15:32:37.318Z,7.20
2018-04-02T15:35:40.609Z,7.10
2018-04-02T15:38:43.931Z,7.10
2018-04-02T15:41:47.226Z,7.10
2018-04-02T15:44:50.531Z,7.10
2018-04-02T15:47:54.610Z,7.10
2018-04-02T15:50:57.974Z,7.10
2018-04-02T15:54:02.856Z,7.20
2018-04-02T15:57:06.171Z,7.10
2018-04-02T16:00:09.482Z,7.10
2018-04-02T16:03:12.778Z,7.20
2018-04-02T16:06:16.091Z,7.20
2018-04-02T16:09:19.385Z,7.20
2018-04-02T16:12:22.695Z,7.20
2018-04-02T16:15:26.009Z,7.10
2018-04-02T16:18:29.371Z,7.10
2018-04-02T16:21:32.677Z,7.00
2018-04-02T16:24:35.994Z,7.00
2018-04-02T16:27:39.322Z,7.00
2018-04-02T16:30:43.438Z,6.90
2018-04-02T16:33:46.715Z,6.90
2018-04-02T16:36:50.011Z,6.90
2018-04-02T16:39:53.327Z,6.90
2018-04-02T16:42:57.422Z,6.80
2018-04-02T16:46:00.710Z,6.80
2018-04-02T16:49:04.032Z,6.80
2018-04-02T16:52:08.100Z,6.70
2018-04-02T16:55:11.421Z,6.70
2018-04-02T16:58:14.739Z,6.70
2018-04-02T17:01:18.821Z,6.70
2018-04-02T17:04:22.111Z,6.60
2018-04-02T17:07:25.424Z,6.60
2018-04-02T17:10:28.739Z,6.50
2018-04-02T17:13:32.055Z,6.40
2018-04-02T17:16:35.366Z,6.40
2018-04-02T17:19:38.684Z,6.30
2018-04-02T17:22:42.003Z,6.30
2018-04-02T17:25:45.331Z,6.30
2018-04-02T17:28:49.398Z,6.20
2018-04-02T17:31:52.714Z,6.20
2018-04-02T17:34:56.036Z,6.20
2018-04-02T17:38:00.123Z,6.00
2018-04-02T17:41:03.426Z,6.00
2018-04-02T17:44:06.754Z,5.90
2018-04-02T17:47:10.814Z,5.90
2018-04-02T17:50:14.124Z,5.90
2018-04-02T17:53:17.452Z,5.80
2018-04-02T17:56:21.506Z,5.80
2018-04-02T17:59:24.822Z,5.80
2018-04-02T18:02:28.142Z,5.70
2018-04-02T18:05:31.450Z,5.70
2018-04-02T18:08:35.534Z,5.60
2018-04-02T18:11:38.846Z,5.60
2018-04-02T18:14:42.147Z,5.50
2018-04-02T18:17:45.458Z,5.50
2018-04-02T18:20:49.513Z,5.40
2018-04-02T18:23:52.830Z,5.40
2018-04-02T18:26:56.130Z,5.40
2018-04-02T18:29:59.442Z,5.40
2018-04-02T18:33:02.758Z,5.30
2018-04-02T18:36:06.820Z,5.30
2018-04-02T18:39:10.135Z,5.30
2018-04-02T18:42:13.436Z,5.30
2018-04-02T18:45:16.766Z,5.30
2018-04-02T18:48:20.827Z,5.20
2018-04-02T18:51:24.143Z,5.20
2018-04-02T18:54:27.443Z,5.10
2018-04-02T18:57:30.763Z,5.10
2018-04-02T19:00:34.823Z,4.90
2018-04-02T19:03:38.144Z,4.90
2018-04-02T19:06:41.454Z,4.80
2018-04-02T19:09:44.768Z,4.80
2018-04-02T19:12:48.835Z,4.70
2018-04-02T19:15:52.156Z,4.70
2018-04-02T19:18:55.470Z,4.70
2018-04-02T19:21:58.767Z,4.60
2018-04-02T19:25:02.848Z,4.60
2018-04-02T19:28:06.158Z,4.60
2018-04-02T19:31:09.487Z,4.50
2018-04-02T19:34:13.551Z,4.60
2018-04-02T19:37:16.882Z,4.50
2018-04-02T19:40:20.946Z,4.50
2018-04-02T19:43:24.255Z,4.50
2018-04-02T19:46:27.555Z,4.50
2018-04-02T19:49:30.872Z,4.50
2018-04-02T19:52:34.170Z,4.40
2018-04-02T19:55:37.487Z,4.40
2018-04-02T19:58:41.555Z,4.40
2018-04-02T20:01:44.871Z,4.40
2018-04-02T20:04:48.171Z,4.40
2018-04-02T20:07:51.495Z,4.30
2018-04-02T20:10:55.558Z,4.30
2018-04-02T20:13:58.885Z,4.30
2018-04-02T20:17:02.178Z,4.30
2018-04-02T20:20:05.493Z,4.30
2018-04-02T20:23:08.879Z,4.30
2018-04-02T20:26:12.162Z,4.20
2018-04-02T20:29:15.495Z,4.30
2018-04-02T20:32:18.793Z,4.30
2018-04-02T20:35:22.131Z,4.30
2018-04-02T20:38:25.422Z,4.30
2018-04-02T20:41:28.735Z,4.20
2018-04-02T20:44:32.039Z,4.20
2018-04-02T20:47:35.346Z,4.20
2018-04-02T20:50:38.663Z,4.20
2018-04-02T20:53:42.750Z,4.10
2018-04-02T20:56:46.051Z,4.10
2018-04-02T20:59:49.367Z,4.20
2018-04-02T21:02:53.427Z,4.10
2018-04-02T21:05:56.735Z,4.10
2018-04-02T21:09:00.027Z,4.10
2018-04-02T21:12:03.346Z,4.20
2018-04-02T21:15:06.663Z,4.20
2018-04-02T21:18:10.756Z,4.20
2018-04-02T21:21:14.092Z,4.10
2018-04-02T21:24:17.401Z,4.10
2018-04-02T21:27:20.720Z,4.00
2018-04-02T21:30:24.023Z,4.00
2018-04-02T21:33:27.376Z,3.90
2018-04-02T21:36:30.679Z,3.90
2018-04-02T21:39:34.007Z,3.80
2018-04-02T21:42:37.356Z,3.80
2018-04-02T21:45:41.422Z,3.70
2018-04-02T21:48:44.766Z,3.70
2018-04-02T21:51:48.826Z,3.70
2018-04-02T21:54:52.151Z,3.70
2018-04-02T21:57:55.450Z,3.70
2018-04-02T22:00:58.776Z,3.70
2018-04-02T22:04:02.855Z,3.60
2018-04-02T22:07:07.088Z,3.60
2018-04-02T22:10:10.398Z,3.60
2018-04-02T22:13:15.203Z,3.60
2018-04-02T22:16:18.506Z,3.50
2018-04-02T22:19:21.822Z,3.50
2018-04-02T22:22:25.914Z,3.50
2018-04-02T22:25:29.249Z,3.50
2018-04-02T22:28:32.577Z,3.50
2018-04-02T22:31:35.888Z,3.50
2018-04-02T22:34:39.206Z,3.50
2018-04-02T22:37:42.506Z,3.50
2018-04-02T22:40:45.859Z,3.40
2018-04-02T22:43:49.163Z,3.40
2018-04-02T22:46:52.483Z,3.40
2018-04-02T22:49:55.794Z,3.40
2018-04-02T22:52:59.879Z,3.40
2018-04-02T22:56:03.217Z,3.30
2018-04-02T22:59:07.286Z,3.40
2018-04-02T23:02:10.620Z,3.30
2018-04-02T23:05:14.686Z,3.30
2018-04-02T23:08:18.012Z,3.30
2018-04-02T23:11:21.345Z,3.30
2018-04-02T23:14:24.690Z,3.30
2018-04-02T23:17:27.990Z,3.30
2018-04-02T23:20:31.295Z,3.30
2018-04-02T23:23:34.627Z,3.30
2018-04-02T23:26:38.699Z,3.30
2018-04-02T23:29:42.013Z,3.30
2018-04-02T23:32:45.317Z,3.30
2018-04-02T23:35:49.403Z,3.30
2018-04-02T23:38:52.724Z,3.30
2018-04-02T23:41:56.031Z,3.30
2018-04-02T23:45:00.127Z,3.30
2018-04-02T23:48:03.434Z,3.30
2018-04-02T23:51:06.759Z,3.30
2018-04-02T23:54:10.070Z,3.20
2018-04-02T23:57:13.383Z,3.20
